sensor_id;sensor_type;location;lat;lon;timestamp;pressure;altitude;pressure_sealevel;temperature;humidity
49297;BME280;35163;48.878;18.040;2023-06-10T00:00:40;98047.50;;;19.09;80.73
49297;BME280;35163;48.878;18.040;2023-06-10T00:03:08;98035.34;;;19.08;80.76
49297;BME280;35163;48.878;18.040;2023-06-10T00:05:36;98035.34;;;19.08;80.83
49297;BME280;35163;48.878;18.040;2023-06-10T00:08:05;98043.84;;;19.12;80.59
49297;BME280;35163;48.878;18.040;2023-06-10T00:10:38;98050.66;;;19.14;80.41
49297;BME280;35163;48.878;18.040;2023-06-10T00:13:06;98048.31;;;19.10;81.04
49297;BME280;35163;48.878;18.040;2023-06-10T00:15:35;98044.88;;;19.09;81.13
49297;BME280;35163;48.878;18.040;2023-06-10T00:18:03;98050.25;;;19.08;81.87
49297;BME280;35163;48.878;18.040;2023-06-10T00:20:30;98050.84;;;19.11;81.10
49297;BME280;35163;48.878;18.040;2023-06-10T00:23:00;98048.25;;;19.11;80.98
49297;BME280;35163;48.878;18.040;2023-06-10T00:25:28;98051.59;;;19.13;80.57
49297;BME280;35163;48.878;18.040;2023-06-10T00:27:55;98052.66;;;19.11;80.86
49297;BME280;35163;48.878;18.040;2023-06-10T00:30:21;98055.47;;;19.08;81.14
49297;BME280;35163;48.878;18.040;2023-06-10T00:32:48;98047.69;;;19.06;80.66
49297;BME280;35163;48.878;18.040;2023-06-10T00:35:15;98052.84;;;19.08;80.77
49297;BME280;35163;48.878;18.040;2023-06-10T00:37:42;98050.44;;;19.04;80.32
49297;BME280;35163;48.878;18.040;2023-06-10T00:40:09;98045.09;;;19.06;80.22
49297;BME280;35163;48.878;18.040;2023-06-10T00:42:36;98050.25;;;19.08;80.34
49297;BME280;35163;48.878;18.040;2023-06-10T00:45:03;98043.31;;;19.06;80.26
49297;BME280;35163;48.878;18.040;2023-06-10T00:47:30;98043.94;;;19.10;79.89
49297;BME280;35163;48.878;18.040;2023-06-10T00:49:57;98046.03;;;19.05;80.15
49297;BME280;35163;48.878;18.040;2023-06-10T00:52:28;98050.31;;;19.06;79.96
49297;BME280;35163;48.878;18.040;2023-06-10T00:54:55;98045.94;;;19.06;79.85
49297;BME280;35163;48.878;18.040;2023-06-10T00:57:22;98047.94;;;19.03;80.34
49297;BME280;35163;48.878;18.040;2023-06-10T00:59:49;98054.25;;;19.00;80.51
49297;BME280;35163;48.878;18.040;2023-06-10T01:02:16;98056.13;;;18.98;80.79
49297;BME280;35163;48.878;18.040;2023-06-10T01:04:43;98056.75;;;19.02;80.53
49297;BME280;35163;48.878;18.040;2023-06-10T01:10:01;98058.41;;;19.03;80.27
49297;BME280;35163;48.878;18.040;2023-06-10T01:12:33;98060.81;;;19.06;80.10
49297;BME280;35163;48.878;18.040;2023-06-10T01:15:02;98054.25;;;19.00;80.60
49297;BME280;35163;48.878;18.040;2023-06-10T01:17:31;98058.63;;;19.00;80.69
49297;BME280;35163;48.878;18.040;2023-06-10T01:19:58;98052.56;;;18.99;80.66
49297;BME280;35163;48.878;18.040;2023-06-10T01:22:26;98054.34;;;18.99;80.92
49297;BME280;35163;48.878;18.040;2023-06-10T01:24:59;98056.75;;;19.02;80.39
49297;BME280;35163;48.878;18.040;2023-06-10T01:27:30;98054.88;;;19.04;80.09
49297;BME280;35163;48.878;18.040;2023-06-10T01:30:04;98054.13;;;19.02;80.15
49297;BME280;35163;48.878;18.040;2023-06-10T01:32:37;98053.78;;;19.06;80.12
49297;BME280;35163;48.878;18.040;2023-06-10T01:35:08;98053.78;;;19.06;79.91
49297;BME280;35163;48.878;18.040;2023-06-10T01:37:36;98060.00;;;19.05;80.02
49297;BME280;35163;48.878;18.040;2023-06-10T01:40:07;98054.88;;;19.04;80.04
49297;BME280;35163;48.878;18.040;2023-06-10T01:42:34;98063.66;;;19.03;80.12
49297;BME280;35163;48.878;18.040;2023-06-10T01:45:01;98056.03;;;19.00;80.03
49297;BME280;35163;48.878;18.040;2023-06-10T01:47:28;98058.41;;;19.03;79.79
49297;BME280;35163;48.878;18.040;2023-06-10T01:49:55;98067.22;;;19.02;79.77
49297;BME280;35163;48.878;18.040;2023-06-10T01:52:22;98067.47;;;18.99;80.07
49297;BME280;35163;48.878;18.040;2023-06-10T01:54:49;98063.16;;;18.98;80.11
49297;BME280;35163;48.878;18.040;2023-06-10T01:57:16;98066.59;;;18.98;79.84
49297;BME280;35163;48.878;18.040;2023-06-10T01:59:42;98069.34;;;18.97;80.03
49297;BME280;35163;48.878;18.040;2023-06-10T02:02:10;98067.69;;;18.96;80.04
49297;BME280;35163;48.878;18.040;2023-06-10T02:04:37;98069.69;;;18.92;79.91
49297;BME280;35163;48.878;18.040;2023-06-10T02:07:04;98073.34;;;18.89;79.91
49297;BME280;35163;48.878;18.040;2023-06-10T02:09:32;98073.34;;;18.89;80.04
49297;BME280;35163;48.878;18.040;2023-06-10T02:12:04;98073.00;;;18.94;79.80
49297;BME280;35163;48.878;18.040;2023-06-10T02:14:33;98079.81;;;18.97;79.75
49297;BME280;35163;48.878;18.040;2023-06-10T02:17:00;98076.47;;;18.94;79.63
49297;BME280;35163;48.878;18.040;2023-06-10T02:19:27;98071.22;;;18.94;79.74
49297;BME280;35163;48.878;18.040;2023-06-10T02:21:54;98068.72;;;18.93;79.89
49297;BME280;35163;48.878;18.040;2023-06-10T02:24:21;98068.94;;;18.90;80.26
49297;BME280;35163;48.878;18.040;2023-06-10T02:26:48;98067.06;;;18.92;80.31
49297;BME280;35163;48.878;18.040;2023-06-10T02:29:15;98062.63;;;18.92;79.97
49297;BME280;35163;48.878;18.040;2023-06-10T02:31:45;98056.47;;;18.93;80.38
49297;BME280;35163;48.878;18.040;2023-06-10T02:34:12;98056.34;;;18.95;79.96
49297;BME280;35163;48.878;18.040;2023-06-10T02:36:38;98057.22;;;18.96;79.69
49297;BME280;35163;48.878;18.040;2023-06-10T02:39:08;98066.84;;;18.95;79.91
49297;BME280;35163;48.878;18.040;2023-06-10T02:41:35;98059.91;;;18.94;79.65
49297;BME280;35163;48.878;18.040;2023-06-10T02:44:01;98068.72;;;18.93;79.86
49297;BME280;35163;48.878;18.040;2023-06-10T02:46:28;98072.91;;;18.96;79.82
49297;BME280;35163;48.878;18.040;2023-06-10T02:48:55;98062.63;;;18.92;79.65
49297;BME280;35163;48.878;18.040;2023-06-10T02:51:22;98072.31;;;18.92;79.88
49297;BME280;35163;48.878;18.040;2023-06-10T02:53:48;98064.56;;;18.90;79.71
49297;BME280;35163;48.878;18.040;2023-06-10T02:56:16;98068.94;;;18.90;79.78
49297;BME280;35163;48.878;18.040;2023-06-10T02:58:43;98062.88;;;18.89;79.62
49297;BME280;35163;48.878;18.040;2023-06-10T03:01:09;98068.09;;;18.89;79.60
49297;BME280;35163;48.878;18.040;2023-06-10T03:03:36;98070.00;;;18.87;79.68
49297;BME280;35163;48.878;18.040;2023-06-10T03:06:12;98069.19;;;18.87;79.80
49297;BME280;35163;48.878;18.040;2023-06-10T03:08:39;98075.34;;;18.86;80.00
49297;BME280;35163;48.878;18.040;2023-06-10T03:11:06;98077.34;;;18.82;79.86
49297;BME280;35163;48.878;18.040;2023-06-10T03:13:33;98069.59;;;18.80;80.31
49297;BME280;35163;48.878;18.040;2023-06-10T03:16:00;98072.09;;;18.82;80.29
49297;BME280;35163;48.878;18.040;2023-06-10T03:18:27;98073.78;;;18.83;80.02
49297;BME280;35163;48.878;18.040;2023-06-10T03:20:55;98070.22;;;18.84;80.03
49297;BME280;35163;48.878;18.040;2023-06-10T03:23:22;98071.28;;;18.81;80.08
49297;BME280;35163;48.878;18.040;2023-06-10T03:25:49;98071.28;;;18.81;79.94
49297;BME280;35163;48.878;18.040;2023-06-10T03:28:16;98074.72;;;18.82;80.06
49297;BME280;35163;48.878;18.040;2023-06-10T03:30:42;98072.00;;;18.83;79.82
49297;BME280;35163;48.878;18.040;2023-06-10T03:33:09;98066.75;;;18.83;79.54
49297;BME280;35163;48.878;18.040;2023-06-10T03:35:36;98074.00;;;18.80;79.37
49297;BME280;35163;48.878;18.040;2023-06-10T03:38:03;98069.72;;;18.79;79.51
49297;BME280;35163;48.878;18.040;2023-06-10T03:40:30;98074.44;;;18.74;79.03
49297;BME280;35163;48.878;18.040;2023-06-10T03:42:58;98065.88;;;18.58;79.44
49297;BME280;35163;48.878;18.040;2023-06-10T03:45:25;98065.06;;;18.45;80.27
49297;BME280;35163;48.878;18.040;2023-06-10T03:47:54;98064.88;;;18.35;80.91
49297;BME280;35163;48.878;18.040;2023-06-10T03:50:22;98063.13;;;18.23;81.40
49297;BME280;35163;48.878;18.040;2023-06-10T03:52:50;98064.38;;;18.17;81.72
49297;BME280;35163;48.878;18.040;2023-06-10T03:55:17;98060.28;;;18.13;82.45
49297;BME280;35163;48.878;18.040;2023-06-10T03:57:44;98064.44;;;18.02;83.54
49297;BME280;35163;48.878;18.040;2023-06-10T04:00:11;98060.69;;;17.93;83.97
49297;BME280;35163;48.878;18.040;2023-06-10T04:02:38;98059.19;;;17.89;84.40
49297;BME280;35163;48.878;18.040;2023-06-10T04:05:13;98067.25;;;17.86;83.74
49297;BME280;35163;48.878;18.040;2023-06-10T04:07:41;98064.84;;;17.83;84.75
49297;BME280;35163;48.878;18.040;2023-06-10T04:10:09;98066.72;;;17.81;85.88
49297;BME280;35163;48.878;18.040;2023-06-10T04:12:37;98057.53;;;17.75;87.03
49297;BME280;35163;48.878;18.040;2023-06-10T04:15:05;98055.63;;;17.77;87.70
49297;BME280;35163;48.878;18.040;2023-06-10T04:17:33;98059.00;;;17.79;86.94
49297;BME280;35163;48.878;18.040;2023-06-10T04:20:00;98068.53;;;17.80;85.14
49297;BME280;35163;48.878;18.040;2023-06-10T04:22:27;98068.22;;;17.85;84.71
49297;BME280;35163;48.878;18.040;2023-06-10T04:24:53;98059.63;;;17.83;84.43
49297;BME280;35163;48.878;18.040;2023-06-10T04:27:20;98063.72;;;17.87;84.18
49297;BME280;35163;48.878;18.040;2023-06-10T04:29:47;98064.53;;;17.88;83.84
49297;BME280;35163;48.878;18.040;2023-06-10T04:32:13;98066.44;;;17.85;84.14
49297;BME280;35163;48.878;18.040;2023-06-10T04:34:40;98063.09;;;17.83;84.20
49297;BME280;35163;48.878;18.040;2023-06-10T04:37:07;98057.53;;;17.88;83.93
49297;BME280;35163;48.878;18.040;2023-06-10T04:39:33;98063.19;;;17.95;84.03
49297;BME280;35163;48.878;18.040;2023-06-10T04:42:04;98048.75;;;18.02;83.92
49297;BME280;35163;48.878;18.040;2023-06-10T04:44:32;98058.16;;;18.05;84.24
49297;BME280;35163;48.878;18.040;2023-06-10T04:46:58;98058.69;;;18.10;84.41
49297;BME280;35163;48.878;18.040;2023-06-10T04:49:25;98059.88;;;18.19;85.07
49297;BME280;35163;48.878;18.040;2023-06-10T04:51:52;98065.63;;;18.24;84.74
49297;BME280;35163;48.878;18.040;2023-06-10T04:54:18;98063.41;;;18.31;84.44
49297;BME280;35163;48.878;18.040;2023-06-10T04:56:45;98065.09;;;18.32;83.67
49297;BME280;35163;48.878;18.040;2023-06-10T04:59:13;98057.84;;;18.36;83.56
49297;BME280;35163;48.878;18.040;2023-06-10T05:01:41;98063.00;;;18.37;84.00
49297;BME280;35163;48.878;18.040;2023-06-10T05:04:08;98061.94;;;18.40;84.26
49297;BME280;35163;48.878;18.040;2023-06-10T05:06:35;98069.16;;;18.36;84.60
49297;BME280;35163;48.878;18.040;2023-06-10T05:09:03;98064.66;;;18.38;85.01
49297;BME280;35163;48.878;18.040;2023-06-10T05:11:29;98068.03;;;18.40;84.94
49297;BME280;35163;48.878;18.040;2023-06-10T05:13:56;98078.38;;;18.42;83.45
49297;BME280;35163;48.878;18.040;2023-06-10T05:16:23;98073.25;;;18.40;82.63
49297;BME280;35163;48.878;18.040;2023-06-10T05:18:50;98079.94;;;18.44;81.64
49297;BME280;35163;48.878;18.040;2023-06-10T05:21:18;98081.31;;;18.50;81.70
49297;BME280;35163;48.878;18.040;2023-06-10T05:23:45;98076.47;;;18.57;81.65
49297;BME280;35163;48.878;18.040;2023-06-10T05:26:12;98075.00;;;18.53;81.18
49297;BME280;35163;48.878;18.040;2023-06-10T05:28:38;98074.91;;;18.54;81.37
49297;BME280;35163;48.878;18.040;2023-06-10T05:31:05;98083.19;;;18.61;81.07
49297;BME280;35163;48.878;18.040;2023-06-10T05:33:32;98076.25;;;18.60;81.34
49297;BME280;35163;48.878;18.040;2023-06-10T05:35:58;98077.50;;;18.67;81.29
49297;BME280;35163;48.878;18.040;2023-06-10T05:38:25;98074.22;;;18.77;82.39
49297;BME280;35163;48.878;18.040;2023-06-10T05:40:52;98075.75;;;18.92;81.26
49297;BME280;35163;48.878;18.040;2023-06-10T05:43:19;98068.88;;;19.03;79.95
49297;BME280;35163;48.878;18.040;2023-06-10T05:45:45;98077.41;;;19.31;79.76
49297;BME280;35163;48.878;18.040;2023-06-10T05:48:12;98079.00;;;19.81;77.07
49297;BME280;35163;48.878;18.040;2023-06-10T05:50:39;98078.84;;;20.07;76.22
49297;BME280;35163;48.878;18.040;2023-06-10T05:53:08;98077.59;;;20.00;76.23
49297;BME280;35163;48.878;18.040;2023-06-10T05:55:42;98076.88;;;19.98;75.99
49297;BME280;35163;48.878;18.040;2023-06-10T05:58:10;98082.63;;;20.03;76.35
49297;BME280;35163;48.878;18.040;2023-06-10T06:00:39;98078.31;;;20.02;75.79
49297;BME280;35163;48.878;18.040;2023-06-10T06:03:07;98070.25;;;20.05;74.76
49297;BME280;35163;48.878;18.040;2023-06-10T06:05:36;98074.28;;;20.09;75.09
49297;BME280;35163;48.878;18.040;2023-06-10T06:08:07;98070.00;;;20.20;75.16
49297;BME280;35163;48.878;18.040;2023-06-10T06:10:34;98068.34;;;20.30;74.36
49297;BME280;35163;48.878;18.040;2023-06-10T06:13:01;98075.53;;;20.39;74.50
49297;BME280;35163;48.878;18.040;2023-06-10T06:15:28;98068.81;;;20.58;74.03
49297;BME280;35163;48.878;18.040;2023-06-10T06:17:55;98068.66;;;20.71;73.61
49297;BME280;35163;48.878;18.040;2023-06-10T06:20:22;98065.56;;;20.78;73.39
49297;BME280;35163;48.878;18.040;2023-06-10T06:22:49;98068.75;;;20.93;72.79
49297;BME280;35163;48.878;18.040;2023-06-10T06:25:18;98074.75;;;20.95;72.03
49297;BME280;35163;48.878;18.040;2023-06-10T06:27:45;98073.63;;;21.09;72.15
49297;BME280;35163;48.878;18.040;2023-06-10T06:30:15;98079.00;;;21.19;71.94
49297;BME280;35163;48.878;18.040;2023-06-10T06:32:42;98087.69;;;21.19;71.67
49297;BME280;35163;48.878;18.040;2023-06-10T06:35:08;98087.09;;;21.27;71.35
49297;BME280;35163;48.878;18.040;2023-06-10T06:37:40;98089.63;;;21.50;72.31
49297;BME280;35163;48.878;18.040;2023-06-10T06:40:07;98088.16;;;21.57;72.36
49297;BME280;35163;48.878;18.040;2023-06-10T06:42:34;98093.22;;;21.70;70.98
49297;BME280;35163;48.878;18.040;2023-06-10T06:45:01;98089.72;;;21.81;70.93
49297;BME280;35163;48.878;18.040;2023-06-10T06:47:28;98098.97;;;21.97;69.78
49297;BME280;35163;48.878;18.040;2023-06-10T06:49:55;98093.75;;;22.07;70.68
49297;BME280;35163;48.878;18.040;2023-06-10T06:52:22;98099.72;;;22.30;70.39
49297;BME280;35163;48.878;18.040;2023-06-10T06:54:49;98097.00;;;22.52;69.84
49297;BME280;35163;48.878;18.040;2023-06-10T06:57:15;98092.19;;;22.57;67.58
49297;BME280;35163;48.878;18.040;2023-06-10T06:59:42;98096.84;;;22.75;68.73
49297;BME280;35163;48.878;18.040;2023-06-10T07:02:09;98096.59;;;22.88;67.58
49297;BME280;35163;48.878;18.040;2023-06-10T07:04:36;98092.63;;;23.13;68.65
49297;BME280;35163;48.878;18.040;2023-06-10T07:07:04;98092.38;;;23.36;68.19
49297;BME280;35163;48.878;18.040;2023-06-10T07:09:31;98099.19;;;23.59;67.12
49297;BME280;35163;48.878;18.040;2023-06-10T07:11:58;98100.84;;;23.79;65.00
49297;BME280;35163;48.878;18.040;2023-06-10T07:14:29;98103.84;;;24.05;66.07
49297;BME280;35163;48.878;18.040;2023-06-10T07:16:56;98104.09;;;24.21;64.88
49297;BME280;35163;48.878;18.040;2023-06-10T07:19:23;98104.34;;;24.28;63.08
49297;BME280;35163;48.878;18.040;2023-06-10T07:21:49;98106.38;;;24.44;64.07
49297;BME280;35163;48.878;18.040;2023-06-10T07:24:16;98110.28;;;24.50;63.68
49297;BME280;35163;48.878;18.040;2023-06-10T07:26:43;98111.38;;;24.47;61.25
49297;BME280;35163;48.878;18.040;2023-06-10T07:29:10;98103.19;;;24.41;61.51
49297;BME280;35163;48.878;18.040;2023-06-10T07:31:36;98109.47;;;24.39;61.97
49297;BME280;35163;48.878;18.040;2023-06-10T07:34:03;98103.78;;;24.34;60.52
49297;BME280;35163;48.878;18.040;2023-06-10T07:36:30;98108.78;;;24.37;61.01
49297;BME280;35163;48.878;18.040;2023-06-10T07:38:57;98106.03;;;24.29;60.72
49297;BME280;35163;48.878;18.040;2023-06-10T07:41:24;98101.72;;;24.28;60.48
49297;BME280;35163;48.878;18.040;2023-06-10T07:43:53;98099.50;;;24.23;60.22
49297;BME280;35163;48.878;18.040;2023-06-10T07:46:21;98102.00;;;24.15;59.74
49297;BME280;35163;48.878;18.040;2023-06-10T07:48:53;98100.91;;;24.08;60.40
49297;BME280;35163;48.878;18.040;2023-06-10T07:51:20;98096.88;;;24.13;61.32
49297;BME280;35163;48.878;18.040;2023-06-10T07:53:47;98096.03;;;24.13;59.79
49297;BME280;35163;48.878;18.040;2023-06-10T07:56:15;98090.50;;;24.06;59.60
49297;BME280;35163;48.878;18.040;2023-06-10T07:58:42;98096.91;;;24.03;60.62
49297;BME280;35163;48.878;18.040;2023-06-10T08:01:08;98096.22;;;24.01;60.65
49297;BME280;35163;48.878;18.040;2023-06-10T08:03:35;98096.78;;;23.95;60.01
49297;BME280;35163;48.878;18.040;2023-06-10T08:06:02;98097.91;;;23.93;60.22
49297;BME280;35163;48.878;18.040;2023-06-10T08:08:29;98094.25;;;23.94;60.09
49297;BME280;35163;48.878;18.040;2023-06-10T08:10:58;98088.31;;;23.91;60.13
49297;BME280;35163;48.878;18.040;2023-06-10T08:13:25;98091.91;;;23.90;61.06
49297;BME280;35163;48.878;18.040;2023-06-10T08:15:51;98101.66;;;23.90;61.50
49297;BME280;35163;48.878;18.040;2023-06-10T08:18:20;98098.03;;;23.91;61.72
49297;BME280;35163;48.878;18.040;2023-06-10T08:20:49;98096.91;;;23.94;61.37
49297;BME280;35163;48.878;18.040;2023-06-10T08:23:16;98099.16;;;23.98;61.10
49297;BME280;35163;48.878;18.040;2023-06-10T08:25:43;98097.19;;;23.90;61.53
49297;BME280;35163;48.878;18.040;2023-06-10T08:28:09;98105.53;;;23.86;61.27
49297;BME280;35163;48.878;18.040;2023-06-10T08:30:36;98101.50;;;23.82;60.74
49297;BME280;35163;48.878;18.040;2023-06-10T08:33:03;98094.31;;;23.74;61.54
49297;BME280;35163;48.878;18.040;2023-06-10T08:35:30;98091.97;;;23.71;61.70
49297;BME280;35163;48.878;18.040;2023-06-10T08:37:56;98097.78;;;23.74;62.02
49297;BME280;35163;48.878;18.040;2023-06-10T08:40:23;98107.78;;;23.81;62.38
49297;BME280;35163;48.878;18.040;2023-06-10T08:43:07;98097.47;;;23.87;62.13
49297;BME280;35163;48.878;18.040;2023-06-10T08:45:36;98101.41;;;23.83;61.80
49297;BME280;35163;48.878;18.040;2023-06-10T08:48:06;98101.91;;;23.87;62.19
49297;BME280;35163;48.878;18.040;2023-06-10T08:50:35;98101.66;;;23.90;62.08
49297;BME280;35163;48.878;18.040;2023-06-10T08:53:07;98100.97;;;23.88;61.76
49297;BME280;35163;48.878;18.040;2023-06-10T08:55:38;98091.50;;;23.95;61.98
49297;BME280;35163;48.878;18.040;2023-06-10T08:58:08;98097.59;;;23.96;60.99
49297;BME280;35163;48.878;18.040;2023-06-10T09:00:34;98098.72;;;24.03;61.34
49297;BME280;35163;48.878;18.040;2023-06-10T09:03:04;98091.34;;;24.07;61.25
49297;BME280;35163;48.878;18.040;2023-06-10T09:05:33;98092.19;;;23.97;61.20
49297;BME280;35163;48.878;18.040;2023-06-10T09:10:25;98094.66;;;24.09;61.02
49297;BME280;35163;48.878;18.040;2023-06-10T09:12:53;98099.38;;;24.15;60.82
49297;BME280;35163;48.878;18.040;2023-06-10T09:15:20;98097.31;;;24.19;61.08
49297;BME280;35163;48.878;18.040;2023-06-10T09:17:47;98088.81;;;24.25;61.48
49297;BME280;35163;48.878;18.040;2023-06-10T09:20:13;98103.94;;;24.33;61.05
49297;BME280;35163;48.878;18.040;2023-06-10T09:22:42;98092.69;;;24.31;60.11
49297;BME280;35163;48.878;18.040;2023-06-10T09:25:11;98094.19;;;24.33;60.59
49297;BME280;35163;48.878;18.040;2023-06-10T09:27:49;98090.72;;;24.33;60.42
49297;BME280;35163;48.878;18.040;2023-06-10T09:30:30;98092.63;;;24.41;60.83
49297;BME280;35163;48.878;18.040;2023-06-10T09:33:00;98091.94;;;24.48;60.81
49297;BME280;35163;48.878;18.040;2023-06-10T09:35:29;98099.25;;;24.55;60.70
49297;BME280;35163;48.878;18.040;2023-06-10T09:37:58;98086.88;;;24.55;59.36
49297;BME280;35163;48.878;18.040;2023-06-10T09:40:26;98088.69;;;24.55;60.22
49297;BME280;35163;48.878;18.040;2023-06-10T09:43:03;98088.94;;;24.61;59.71
49297;BME280;35163;48.878;18.040;2023-06-10T09:45:31;98092.13;;;24.65;60.22
49297;BME280;35163;48.878;18.040;2023-06-10T09:47:58;98086.22;;;24.71;59.48
49297;BME280;35163;48.878;18.040;2023-06-10T09:50:25;98089.25;;;24.76;59.65
49297;BME280;35163;48.878;18.040;2023-06-10T09:52:52;98086.63;;;24.76;58.43
49297;BME280;35163;48.878;18.040;2023-06-10T09:55:19;98085.22;;;24.82;58.34
49297;BME280;35163;48.878;18.040;2023-06-10T09:57:49;98088.38;;;24.86;58.29
49297;BME280;35163;48.878;18.040;2023-06-10T10:00:16;98083.09;;;24.86;57.10
49297;BME280;35163;48.878;18.040;2023-06-10T10:02:48;98078.75;;;24.67;56.47
49297;BME280;35163;48.878;18.040;2023-06-10T10:05:17;98085.94;;;24.74;58.07
49297;BME280;35163;48.878;18.040;2023-06-10T10:07:45;98076.34;;;24.73;57.47
49297;BME280;35163;48.878;18.040;2023-06-10T10:10:14;98080.75;;;24.83;57.84
49297;BME280;35163;48.878;18.040;2023-06-10T10:12:42;98078.22;;;24.91;57.99
49297;BME280;35163;48.878;18.040;2023-06-10T10:15:10;98075.13;;;24.96;57.85
49297;BME280;35163;48.878;18.040;2023-06-10T10:20:14;98078.16;;;25.01;56.92
49297;BME280;35163;48.878;18.040;2023-06-10T10:22:43;98069.78;;;25.06;57.22
49297;BME280;35163;48.878;18.040;2023-06-10T10:25:17;98062.44;;;25.18;58.10
49297;BME280;35163;48.878;18.040;2023-06-10T10:27:57;98074.09;;;25.25;57.80
49297;BME280;35163;48.878;18.040;2023-06-10T10:30:26;98068.97;;;25.23;56.84
49297;BME280;35163;48.878;18.040;2023-06-10T10:35:25;98063.19;;;25.28;56.71
49297;BME280;35163;48.878;18.040;2023-06-10T10:37:53;98056.41;;;25.26;55.81
49297;BME280;35163;48.878;18.040;2023-06-10T10:40:22;98068.78;;;25.25;56.30
49297;BME280;35163;48.878;18.040;2023-06-10T10:42:50;98061.31;;;25.20;55.35
49297;BME280;35163;48.878;18.040;2023-06-10T10:45:17;98056.56;;;25.24;55.89
49297;BME280;35163;48.878;18.040;2023-06-10T10:47:52;98047.63;;;25.25;56.13
49297;BME280;35163;48.878;18.040;2023-06-10T10:50:20;98043.19;;;25.26;55.85
49297;BME280;35163;48.878;18.040;2023-06-10T10:55:24;98051.28;;;25.24;56.52
49297;BME280;35163;48.878;18.040;2023-06-10T11:00:29;98049.38;;;25.16;55.29
49297;BME280;35163;48.878;18.040;2023-06-10T11:02:59;98040.59;;;25.16;55.25
49297;BME280;35163;48.878;18.040;2023-06-10T11:05:41;98036.31;;;25.15;55.76
49297;BME280;35163;48.878;18.040;2023-06-10T11:08:14;98043.31;;;25.06;55.36
49297;BME280;35163;48.878;18.040;2023-06-10T11:10:51;98041.38;;;25.08;55.68
49297;BME280;35163;48.878;18.040;2023-06-10T11:13:27;98040.22;;;25.10;56.50
49297;BME280;35163;48.878;18.040;2023-06-10T11:15:57;98044.41;;;25.13;56.05
49297;BME280;35163;48.878;18.040;2023-06-10T11:18:35;98037.31;;;25.14;53.97
49297;BME280;35163;48.878;18.040;2023-06-10T11:21:05;98031.16;;;25.13;53.65
49297;BME280;35163;48.878;18.040;2023-06-10T11:23:39;98033.56;;;25.24;55.30
49297;BME280;35163;48.878;18.040;2023-06-10T11:33:49;98021.66;;;25.20;51.56
49297;BME280;35163;48.878;18.040;2023-06-10T11:36:18;98031.91;;;25.05;51.00
49297;BME280;35163;48.878;18.040;2023-06-10T11:38:45;98027.91;;;25.01;50.88
49297;BME280;35163;48.878;18.040;2023-06-10T11:41:13;98028.66;;;24.93;50.42
49297;BME280;35163;48.878;18.040;2023-06-10T11:43:43;98021.25;;;24.97;51.35
49297;BME280;35163;48.878;18.040;2023-06-10T11:46:14;98020.69;;;25.03;52.03
49297;BME280;35163;48.878;18.040;2023-06-10T11:48:55;98015.47;;;25.11;52.32
49297;BME280;35163;48.878;18.040;2023-06-10T11:51:24;98009.31;;;25.11;51.19
49297;BME280;35163;48.878;18.040;2023-06-10T11:53:52;98007.38;;;25.13;51.61
49297;BME280;35163;48.878;18.040;2023-06-10T11:56:30;98004.78;;;25.21;50.75
49297;BME280;35163;48.878;18.040;2023-06-10T11:58:59;98014.25;;;25.24;51.37
49297;BME280;35163;48.878;18.040;2023-06-10T12:01:33;98012.25;;;25.26;51.96
49297;BME280;35163;48.878;18.040;2023-06-10T12:04:02;98009.19;;;25.31;52.14
49297;BME280;35163;48.878;18.040;2023-06-10T12:06:47;98011.19;;;25.37;51.70
49297;BME280;35163;48.878;18.040;2023-06-10T12:12:01;98019.34;;;25.44;52.21
49297;BME280;35163;48.878;18.040;2023-06-10T12:14:55;98032.72;;;25.42;51.56
49297;BME280;35163;48.878;18.040;2023-06-10T12:17:35;98022.03;;;25.26;51.02
49297;BME280;35163;48.878;18.040;2023-06-10T12:20:07;98020.78;;;25.38;52.32
49297;BME280;35163;48.878;18.040;2023-06-10T12:22:42;98011.56;;;25.42;51.45
49297;BME280;35163;48.878;18.040;2023-06-10T12:25:10;98007.31;;;25.50;52.25
49297;BME280;35163;48.878;18.040;2023-06-10T12:27:39;98006.31;;;25.51;52.18
49297;BME280;35163;48.878;18.040;2023-06-10T12:30:07;98009.34;;;25.56;53.10
49297;BME280;35163;48.878;18.040;2023-06-10T12:32:41;97994.97;;;25.58;52.63
49297;BME280;35163;48.878;18.040;2023-06-10T12:35:10;97999.13;;;25.61;53.37
49297;BME280;35163;48.878;18.040;2023-06-10T12:37:38;97998.69;;;25.66;53.43
49297;BME280;35163;48.878;18.040;2023-06-10T12:40:11;97999.88;;;25.71;53.31
49297;BME280;35163;48.878;18.040;2023-06-10T12:42:39;98015.75;;;25.71;53.21
49297;BME280;35163;48.878;18.040;2023-06-10T12:45:06;98024.75;;;25.60;51.37
49297;BME280;35163;48.878;18.040;2023-06-10T12:47:37;98049.22;;;25.36;51.35
49297;BME280;35163;48.878;18.040;2023-06-10T12:50:11;98030.78;;;25.26;51.84
49297;BME280;35163;48.878;18.040;2023-06-10T12:52:39;98039.56;;;25.08;53.04
49297;BME280;35163;48.878;18.040;2023-06-10T12:55:06;98044.78;;;25.00;53.55
49297;BME280;35163;48.878;18.040;2023-06-10T12:57:33;98050.69;;;24.84;53.63
49297;BME280;35163;48.878;18.040;2023-06-10T13:00:00;98062.59;;;24.70;53.76
49297;BME280;35163;48.878;18.040;2023-06-10T13:02:31;98056.13;;;24.54;56.55
49297;BME280;35163;48.878;18.040;2023-06-10T13:04:58;98058.50;;;24.29;59.09
49297;BME280;35163;48.878;18.040;2023-06-10T13:07:25;98070.34;;;24.05;61.41
49297;BME280;35163;48.878;18.040;2023-06-10T13:09:53;98057.19;;;23.85;61.83
49297;BME280;35163;48.878;18.040;2023-06-10T13:12:19;98066.97;;;23.65;63.38
49297;BME280;35163;48.878;18.040;2023-06-10T13:15:04;98058.91;;;23.57;63.72
49297;BME280;35163;48.878;18.040;2023-06-10T13:17:31;98057.94;;;23.48;64.87
49297;BME280;35163;48.878;18.040;2023-06-10T13:19:57;98054.59;;;23.36;65.63
49297;BME280;35163;48.878;18.040;2023-06-10T13:22:24;98049.88;;;23.29;67.26